createdAt,value
2022-09-27T00:04:04.101Z,8.9
2022-09-27T00:09:54.382Z,6.7
2022-09-27T00:15:45.756Z,9.6
2022-09-27T00:21:37.531Z,6.5
2022-09-27T00:27:29.535Z,6.2
2022-09-27T00:33:20.689Z,6.3
2022-09-27T00:39:11.360Z,6.8
2022-09-27T00:45:04.474Z,5.4
2022-09-27T00:50:55.133Z,8.6
2022-09-27T00:56:47.711Z,6.8
2022-09-27T01:02:39.789Z,6.6
2022-09-27T01:08:30.951Z,5.4
2022-09-27T01:14:24.963Z,6.7
2022-09-27T01:20:14.265Z,6.3
2022-09-27T01:26:05.021Z,5.5
2022-09-27T01:31:55.804Z,4.8
2022-09-27T01:37:45.047Z,4.3
2022-09-27T01:43:34.055Z,3.8
2022-09-27T01:49:23.305Z,3.2
2022-09-27T01:55:13.010Z,4.4
2022-09-27T02:01:03.032Z,2.8
2022-09-27T02:06:53.739Z,4
2022-09-27T02:12:45.337Z,4.9
2022-09-27T02:18:35.173Z,3.3
2022-09-27T02:24:30.148Z,3.5
2022-09-27T02:30:21.225Z,5.3
2022-09-27T02:36:12.524Z,2.6
2022-09-27T02:42:05.043Z,4.1
2022-09-27T02:47:55.995Z,5
2022-09-27T02:53:49.281Z,4.5
2022-09-27T02:59:39.661Z,4.3
2022-09-27T03:05:30.592Z,5.5
2022-09-27T03:11:22.158Z,4.7
2022-09-27T03:17:13.981Z,4.4
2022-09-27T03:23:06.728Z,3.9
2022-09-27T03:28:58.962Z,3.9
2022-09-27T03:34:49.782Z,1.9
2022-09-27T03:40:42.239Z,1.6
2022-09-27T03:46:34.245Z,3.4
2022-09-27T03:52:26.023Z,4.3
2022-09-27T03:58:16.830Z,1.8
2022-09-27T04:04:14.889Z,1.9
2022-09-27T04:10:05.399Z,1.7
2022-09-27T04:15:58.078Z,2.7
2022-09-27T04:21:47.206Z,2.6
2022-09-27T04:27:37.791Z,4.9
2022-09-27T04:33:28.433Z,3.7
2022-09-27T04:39:19.514Z,3.1
2022-09-27T04:45:09.789Z,3
2022-09-27T04:51:00.372Z,3.4
2022-09-27T04:56:50.900Z,4.3
2022-09-27T05:02:41.380Z,4.6
2022-09-27T05:08:32.066Z,4.1
2022-09-27T05:14:23.805Z,5.1
2022-09-27T05:20:18.280Z,5.9
2022-09-27T05:26:17.055Z,8.3
2022-09-27T05:32:08.419Z,9.4
2022-09-27T05:37:59.429Z,11.8
2022-09-27T05:43:50.560Z,6.5
2022-09-27T05:49:42.986Z,5.6
2022-09-27T05:55:35.033Z,5.1
2022-09-27T06:01:28.139Z,5.2
2022-09-27T06:07:19.467Z,3.6
2022-09-27T06:13:11.478Z,3.6
2022-09-27T06:19:02.608Z,4.8
2022-09-27T06:24:53.317Z,3.8
2022-09-27T06:30:44.678Z,3.7
2022-09-27T06:36:39.678Z,4.4
2022-09-27T06:42:30.582Z,5.4
2022-09-27T06:48:22.190Z,3.3
2022-09-27T06:54:19.119Z,4.7
2022-09-27T07:00:12.361Z,3.6
2022-09-27T07:06:02.892Z,4.3
2022-09-27T07:11:56.128Z,4.3
2022-09-27T07:17:47.131Z,3.3
2022-09-27T07:23:38.486Z,4.3
2022-09-27T07:29:38.968Z,4.2
2022-09-27T07:35:33.458Z,3.4
2022-09-27T07:41:31.162Z,3.7
2022-09-27T07:47:27.801Z,3.3
2022-09-27T07:53:18.813Z,3.3
2022-09-27T07:59:12.365Z,1.8
2022-09-27T08:05:07.296Z,3.2
2022-09-27T08:10:59.820Z,2.6
2022-09-27T08:16:50.871Z,2
2022-09-27T08:22:45.292Z,4.9
2022-09-27T08:28:40.682Z,2.5
2022-09-27T08:34:31.778Z,2.4
2022-09-27T08:40:23.787Z,2.8
2022-09-27T08:46:14.981Z,3
2022-09-27T08:52:06.102Z,2.2
2022-09-27T08:57:56.892Z,2.5
2022-09-27T09:03:49.811Z,3.8
2022-09-27T09:09:39.466Z,1.8
2022-09-27T09:15:30.932Z,1.9
2022-09-27T09:21:25.671Z,2.1
2022-09-27T09:27:28.005Z,1.3
2022-09-27T09:33:21.601Z,2.5
2022-09-27T09:39:13.191Z,2.4
2022-09-27T09:45:04.502Z,3
2022-09-27T09:50:55.648Z,1.6
2022-09-27T09:56:52.852Z,1.8
2022-09-27T10:02:47.888Z,1.8
2022-09-27T10:08:40.847Z,2.8
2022-09-27T10:14:33.656Z,2.1
2022-09-27T10:20:30.686Z,2.4
2022-09-27T10:26:25.211Z,2.3
2022-09-27T10:32:37.269Z,3
2022-09-27T10:38:39.241Z,3.3
2022-09-27T10:44:29.880Z,2.5
2022-09-27T10:51:01.169Z,1.8
2022-09-27T10:56:50.110Z,2.4
2022-09-27T11:02:48.554Z,3.9
2022-09-27T11:08:49.623Z,1.8
2022-09-27T11:14:40.987Z,3.4
2022-09-27T11:20:31.642Z,2.7
2022-09-27T11:26:25.625Z,2.7
2022-09-27T11:32:17.178Z,2.3
2022-09-27T11:38:08.233Z,2.2
2022-09-27T11:44:07.561Z,2.5
2022-09-27T11:49:56.682Z,2.3
2022-09-27T11:55:47.522Z,4.3
2022-09-27T12:02:04.031Z,2.4
2022-09-27T12:07:56.468Z,2.7
2022-09-27T12:13:48.116Z,2.4
2022-09-27T12:19:39.344Z,2.7
2022-09-27T12:25:30.603Z,3.4
2022-09-27T12:31:39.446Z,3.5
2022-09-27T12:37:30.476Z,3.9
2022-09-27T12:43:21.726Z,4
2022-09-27T12:49:13.525Z,2.7
2022-09-27T12:55:06.308Z,4.8
2022-09-27T13:00:57.382Z,4.2
2022-09-27T13:06:47.915Z,3.5
2022-09-27T13:12:39.104Z,3.1
2022-09-27T13:18:31.429Z,3.5
2022-09-27T13:24:22.389Z,2.8
2022-09-27T13:30:15.084Z,2.5
2022-09-27T13:36:06.704Z,3.5
2022-09-27T13:41:58.507Z,2.3
2022-09-27T13:47:50.297Z,3
2022-09-27T13:53:40.958Z,2
2022-09-27T13:59:32.633Z,2.5
2022-09-27T14:05:26.777Z,2.5
2022-09-27T14:11:19.014Z,1.9
2022-09-27T14:17:15.128Z,18.6
2022-09-27T14:23:06.841Z,3.9
2022-09-27T14:28:58.973Z,4.4
2022-09-27T14:34:52.251Z,3.5
2022-09-27T14:40:48.510Z,2.6
2022-09-27T14:53:00.904Z,2.4
2022-09-27T14:59:02.198Z,6.3
2022-09-27T15:04:54.543Z,4.2
2022-09-27T15:10:45.889Z,3
2022-09-27T15:16:37.386Z,3.4
2022-09-27T15:22:29.886Z,3.1
2022-09-27T15:28:22.633Z,2.4
2022-09-27T15:34:26.914Z,2.3
2022-09-27T15:40:19.090Z,2.3
2022-09-27T15:46:12.184Z,3.2
2022-09-27T15:52:03.812Z,2.7
2022-09-27T15:57:56.939Z,1.5
2022-09-27T16:03:48.153Z,1.3
2022-09-27T16:09:39.425Z,3.2
2022-09-27T16:15:29.852Z,3.9
2022-09-27T16:21:21.439Z,4.2
2022-09-27T16:27:13.274Z,4.9
2022-09-27T16:33:04.023Z,5.4
2022-09-27T16:38:55.096Z,5.6
2022-09-27T16:44:46.964Z,6.5
2022-09-27T16:50:40.157Z,7.7
2022-09-27T16:56:33.084Z,9.3
2022-09-27T17:02:24.451Z,11.9
2022-09-27T17:08:14.006Z,9
2022-09-27T17:14:06.046Z,8.5
2022-09-27T17:19:58.819Z,18.4
2022-09-27T17:25:50.486Z,11.8
2022-09-27T17:31:49.575Z,45.7
2022-09-27T17:37:55.205Z,24.6
2022-09-27T17:43:44.916Z,23.3
2022-09-27T17:49:34.686Z,23.1
2022-09-27T17:55:22.746Z,8.4
2022-09-27T18:01:12.979Z,5.2
2022-09-27T18:07:04.503Z,7.3
2022-09-27T18:12:55.108Z,6.6
2022-09-27T18:18:47.191Z,5.7
2022-09-27T18:24:39.716Z,5.9
2022-09-27T18:30:30.065Z,8.3
2022-09-27T18:36:22.715Z,6.8
2022-09-27T18:42:13.100Z,7.1
2022-09-27T18:48:02.690Z,5.2
2022-09-27T18:53:52.668Z,7.3
2022-09-27T19:00:00.686Z,8.3
2022-09-27T19:06:03.767Z,9
2022-09-27T19:11:54.800Z,8.2
2022-09-27T19:17:44.609Z,13.1
2022-09-27T19:23:37.557Z,9.8
2022-09-27T19:29:27.699Z,9.3
2022-09-27T19:35:18.468Z,9
2022-09-27T19:41:08.912Z,8.9
2022-09-27T19:46:59.790Z,8.8
2022-09-27T19:52:51.294Z,8.1
2022-09-27T19:58:40.983Z,7.4
2022-09-27T20:04:33.273Z,10.1
2022-09-27T20:10:23.448Z,8.3
2022-09-27T20:16:13.012Z,8.9
2022-09-27T20:22:05.869Z,13
2022-09-27T20:27:56.330Z,5.5
2022-09-27T20:33:46.181Z,5.8
2022-09-27T20:39:37.953Z,5.5
2022-09-27T20:45:27.366Z,3.7
2022-09-27T20:51:17.234Z,5.7
2022-09-27T20:57:08.248Z,3.4
2022-09-27T21:03:03.211Z,5.6
2022-09-27T21:08:56.874Z,5.6
2022-09-27T21:14:46.083Z,5.6
2022-09-27T21:20:33.960Z,7
2022-09-27T21:26:22.578Z,5.7
2022-09-27T21:32:10.524Z,6.3
2022-09-27T21:37:59.332Z,5.6
2022-09-27T21:43:48.209Z,6
2022-09-27T21:49:37.475Z,5.8
2022-09-27T21:55:27.225Z,7
2022-09-27T22:01:18.074Z,5.2
2022-09-27T22:07:09.431Z,5.4
2022-09-27T22:12:59.664Z,7.5
2022-09-27T22:18:49.197Z,7.7
2022-09-27T22:24:40.790Z,5.4
2022-09-27T22:30:30.434Z,10.4
2022-09-27T22:36:20.497Z,9.6
2022-09-27T22:42:09.069Z,5
2022-09-27T22:47:58.907Z,5
2022-09-27T22:53:49.044Z,6.8
2022-09-27T22:59:39.422Z,5.9
2022-09-27T23:05:28.675Z,8
2022-09-27T23:11:17.758Z,5.3
2022-09-27T23:17:07.138Z,4.4
2022-09-27T23:22:56.295Z,4.2
2022-09-27T23:28:46.194Z,5.6
2022-09-27T23:34:37.550Z,4
2022-09-27T23:40:27.056Z,2.7
2022-09-27T23:46:54.563Z,4.1
2022-09-27T23:53:36.454Z,2.1
2022-09-27T23:59:44.038Z,3.7
